Time;durP1;ratioP1;P1;durP2;ratioP2;P2;SDS_P1;SDS_P2;PMS_P1;PMS_P2;Temp;Humidity;BMP_temperature;BMP_pressure;BME280_temperature;BME280_humidity;BME280_pressure;Samples;Min_cycle;Max_cycle;Signal;HPM_P1;HPM_P2
2022/01/14 00:01:27;;;;;;;58.95;21.73;;;;;;;;;;5009461;28;20026;-89
2022/01/14 00:03:53;;;;;;;63.63;20.75;;;;;;;;;;5036127;23;20044;-68
2022/01/14 00:06:18;;;;;;;54.65;20.20;;;;;;;;;;5033951;28;20382;-68
2022/01/14 00:08:43;;;;;;;60.08;20.70;;;;;;;;;;5033483;28;20458;-68
2022/01/14 00:11:15;;;;;;;59.38;19.95;;;;;;;;;;5033583;28;20053;-68
2022/01/14 00:16:12;;;;;;;48.05;19.20;;;;;;;;;;5033930;28;20021;-68
2022/01/14 00:18:37;;;;;;;53.08;20.08;;;;;;;;;;5033637;28;20017;-68
2022/01/14 00:21:03;;;;;;;54.20;19.10;;;;;;;;;;5033324;28;20108;-68
2022/01/14 00:23:33;;;;;;;57.53;20.27;;;;;;;;;;5037604;28;20041;-68
2022/01/14 00:34:23;;;;;;;47.70;17.98;;;;;;;;;;4991335;28;20496;-68
2022/01/14 00:36:49;;;;;;;43.63;16.02;;;;;;;;;;5033018;28;20018;-68
2022/01/14 00:39:14;;;;;;;54.53;20.77;;;;;;;;;;5033032;28;21198;-68
2022/01/14 00:41:40;;;;;;;52.42;18.55;;;;;;;;;;5033081;28;20021;-68
2022/01/14 00:44:10;;;;;;;57.92;19.58;;;;;;;;;;5033252;28;20048;-69
2022/01/14 00:46:36;;;;;;;53.83;20.90;;;;;;;;;;5033209;28;20022;-68
2022/01/14 00:49:01;;;;;;;56.80;21.08;;;;;;;;;;5033413;28;20227;-68
2022/01/14 00:51:27;;;;;;;60.90;20.52;;;;;;;;;;5032954;28;20048;-68
2022/01/14 00:53:52;;;;;;;64.43;21.20;;;;;;;;;;5033055;28;20026;-68
2022/01/14 00:56:26;;;;;;;54.35;21.42;;;;;;;;;;5033092;28;20489;-68
2022/01/14 01:01:36;;;;;;;61.25;22.02;;;;;;;;;;5032690;28;20516;-68
2022/01/14 01:04:01;;;;;;;57.88;20.33;;;;;;;;;;5032562;28;20029;-68
2022/01/14 01:06:27;;;;;;;60.05;21.88;;;;;;;;;;5033338;28;20499;-68
2022/01/14 01:08:55;;;;;;;61.85;21.23;;;;;;;;;;5031775;28;20431;-68
2022/01/14 01:11:25;;;;;;;56.28;19.67;;;;;;;;;;5032804;28;20108;-68
2022/01/14 01:14:00;;;;;;;55.00;20.25;;;;;;;;;;5031534;28;20021;-68
2022/01/14 01:16:26;;;;;;;56.72;20.40;;;;;;;;;;5032650;28;20022;-68
2022/01/14 01:18:51;;;;;;;60.22;20.05;;;;;;;;;;5032908;28;20032;-68
2022/01/14 01:21:16;;;;;;;61.70;21.08;;;;;;;;;;5032118;28;20041;-68
2022/01/14 01:23:41;;;;;;;65.60;21.98;;;;;;;;;;5032675;28;20022;-68
2022/01/14 01:26:14;;;;;;;59.65;21.52;;;;;;;;;;5032471;28;20469;-68
2022/01/14 01:28:54;;;;;;;58.78;19.63;;;;;;;;;;5032548;28;20040;-68
2022/01/14 01:31:35;;;;;;;63.83;20.27;;;;;;;;;;5032450;28;20501;-68
2022/01/14 01:34:01;;;;;;;61.00;21.48;;;;;;;;;;5032743;28;20042;-68
2022/01/14 01:36:26;;;;;;;53.60;21.38;;;;;;;;;;5032408;28;20050;-68
2022/01/14 01:38:51;;;;;;;54.42;20.13;;;;;;;;;;5031977;28;20067;-68
2022/01/14 01:41:17;;;;;;;58.35;22.05;;;;;;;;;;5032219;28;20033;-68
2022/01/14 01:43:44;;;;;;;53.50;20.33;;;;;;;;;;5031902;28;20021;-68
2022/01/14 01:46:10;;;;;;;56.08;20.80;;;;;;;;;;5032587;28;20025;-68
2022/01/14 01:48:35;;;;;;;54.53;20.77;;;;;;;;;;5030270;28;20047;-68
2022/01/14 01:51:00;;;;;;;52.55;20.40;;;;;;;;;;5031509;28;20021;-68
2022/01/14 01:53:25;;;;;;;62.80;20.60;;;;;;;;;;5031875;28;20506;-68
2022/01/14 01:55:50;;;;;;;59.00;20.20;;;;;;;;;;5032191;28;20378;-68
2022/01/14 01:58:16;;;;;;;58.13;19.02;;;;;;;;;;5031819;28;20021;-68
2022/01/14 02:00:41;;;;;;;51.33;17.60;;;;;;;;;;5032227;28;20021;-68
2022/01/14 02:03:07;;;;;;;52.90;17.52;;;;;;;;;;5031258;28;20058;-69
2022/01/14 02:05:32;;;;;;;54.72;20.00;;;;;;;;;;5031971;28;20429;-68
2022/01/14 02:07:57;;;;;;;50.50;19.20;;;;;;;;;;5031225;28;20458;-68
2022/01/14 02:10:24;;;;;;;55.35;19.17;;;;;;;;;;5031743;28;20054;-68
2022/01/14 02:12:52;;;;;;;44.75;17.67;;;;;;;;;;5031467;28;20478;-68
2022/01/14 02:23:31;;;;;;;60.72;19.77;;;;;;;;;;5016083;28;20508;-68
2022/01/14 02:25:56;;;;;;;57.03;19.35;;;;;;;;;;5031594;28;20109;-68
2022/01/14 02:28:21;;;;;;;56.45;19.15;;;;;;;;;;5031049;28;20104;-68
2022/01/14 02:30:48;;;;;;;51.85;18.55;;;;;;;;;;5030491;28;20083;-68
2022/01/14 02:33:14;;;;;;;59.47;20.10;;;;;;;;;;5030855;28;20083;-68
2022/01/14 02:35:40;;;;;;;62.40;19.38;;;;;;;;;;5030994;28;20029;-68
2022/01/14 02:38:06;;;;;;;49.83;18.85;;;;;;;;;;5030266;28;20070;-68
2022/01/14 02:40:31;;;;;;;54.80;19.55;;;;;;;;;;5031371;28;20045;-68
2022/01/14 02:43:00;;;;;;;54.38;20.63;;;;;;;;;;5030547;28;20075;-68
2022/01/14 02:45:28;;;;;;;45.25;18.50;;;;;;;;;;5031230;28;20096;-68
2022/01/14 02:47:53;;;;;;;61.30;19.77;;;;;;;;;;5030184;28;20014;-68
2022/01/14 02:50:21;;;;;;;56.50;20.27;;;;;;;;;;5031155;28;20037;-68
2022/01/14 02:55:20;;;;;;;47.92;18.48;;;;;;;;;;5030884;28;20072;-68
2022/01/14 02:57:47;;;;;;;53.00;18.20;;;;;;;;;;5030047;28;20037;-68
2022/01/14 03:00:13;;;;;;;57.40;17.52;;;;;;;;;;5030515;28;20038;-68
2022/01/14 03:02:43;;;;;;;54.25;16.90;;;;;;;;;;5030904;28;20075;-68
2022/01/14 03:05:09;;;;;;;46.30;17.33;;;;;;;;;;5030665;28;20037;-68
2022/01/14 03:07:35;;;;;;;51.22;18.48;;;;;;;;;;5029453;28;20474;-68
2022/01/14 03:10:00;;;;;;;52.72;17.25;;;;;;;;;;5030473;28;20091;-68
2022/01/14 03:12:26;;;;;;;56.10;17.92;;;;;;;;;;5030573;28;20529;-68
2022/01/14 03:14:53;;;;;;;50.30;17.13;;;;;;;;;;5030200;28;20100;-69
2022/01/14 03:17:18;;;;;;;48.30;16.80;;;;;;;;;;5029894;28;20029;-68
2022/01/14 03:19:45;;;;;;;49.88;17.50;;;;;;;;;;5030505;28;20393;-68
2022/01/14 03:22:25;;;;;;;43.63;15.77;;;;;;;;;;5029989;28;20591;-68
2022/01/14 03:27:16;;;;;;;48.97;16.63;;;;;;;;;;5029724;28;20401;-68
2022/01/14 03:29:41;;;;;;;47.75;16.67;;;;;;;;;;5030082;28;20021;-68
2022/01/14 03:32:07;;;;;;;48.72;16.73;;;;;;;;;;5029843;28;20251;-68
2022/01/14 03:34:32;;;;;;;47.85;17.10;;;;;;;;;;5030099;28;20478;-68
2022/01/14 03:36:57;;;;;;;55.78;17.77;;;;;;;;;;5029378;28;20413;-68
2022/01/14 03:39:23;;;;;;;50.10;16.50;;;;;;;;;;5029717;28;20017;-68
2022/01/14 03:41:48;;;;;;;54.30;16.50;;;;;;;;;;5029652;28;20465;-68
2022/01/14 03:44:14;;;;;;;42.50;15.43;;;;;;;;;;5030399;28;20413;-68
2022/01/14 03:46:39;;;;;;;49.88;17.13;;;;;;;;;;5029974;28;20302;-68
2022/01/14 03:49:05;;;;;;;43.45;16.25;;;;;;;;;;5030188;28;20021;-68
2022/01/14 03:51:30;;;;;;;48.08;17.38;;;;;;;;;;5028017;28;20485;-68
2022/01/14 03:53:56;;;;;;;51.45;17.65;;;;;;;;;;5029427;28;20072;-68
2022/01/14 03:56:23;;;;;;;48.20;16.50;;;;;;;;;;5030099;28;20113;-68
2022/01/14 03:58:48;;;;;;;57.65;18.23;;;;;;;;;;5029771;28;20020;-68
2022/01/14 04:01:13;;;;;;;53.42;16.95;;;;;;;;;;5029991;28;20033;-68
2022/01/14 04:03:39;;;;;;;62.53;18.10;;;;;;;;;;5029562;28;20068;-68
2022/01/14 04:06:04;;;;;;;47.55;17.15;;;;;;;;;;5029639;28;20529;-68
2022/01/14 04:08:30;;;;;;;49.45;18.10;;;;;;;;;;5029100;28;20026;-68
2022/01/14 04:10:56;;;;;;;51.17;18.13;;;;;;;;;;5029715;28;20025;-68
2022/01/14 04:13:34;;;;;;;50.00;17.27;;;;;;;;;;5028880;28;20466;-68
2022/01/14 04:16:00;;;;;;;46.88;16.95;;;;;;;;;;5019342;28;20160;-68
2022/01/14 04:18:26;;;;;;;47.53;17.40;;;;;;;;;;5027909;28;20024;-68
2022/01/14 04:20:51;;;;;;;55.95;16.80;;;;;;;;;;5029328;28;20390;-68
2022/01/14 04:23:21;;;;;;;60.55;17.52;;;;;;;;;;5029132;28;20037;-68
2022/01/14 04:25:53;;;;;;;48.88;16.98;;;;;;;;;;5029798;28;20398;-68
2022/01/14 04:28:19;;;;;;;50.22;18.27;;;;;;;;;;5029224;28;20025;-68
2022/01/14 04:30:48;;;;;;;48.33;16.35;;;;;;;;;;5029408;28;20107;-68
2022/01/14 04:33:14;;;;;;;49.08;18.10;;;;;;;;;;5029310;28;20041;-68
2022/01/14 04:35:39;;;;;;;50.40;17.17;;;;;;;;;;5029722;28;20022;-68
2022/01/14 04:38:04;;;;;;;57.30;17.30;;;;;;;;;;5027372;28;20136;-68
2022/01/14 04:40:30;;;;;;;50.22;17.83;;;;;;;;;;5029606;28;20018;-68
2022/01/14 04:42:57;;;;;;;52.30;17.65;;;;;;;;;;5028823;28;20075;-68
2022/01/14 04:45:29;;;;;;;49.38;15.75;;;;;;;;;;5029434;28;20022;-68
2022/01/14 04:47:55;;;;;;;44.65;15.48;;;;;;;;;;5028970;28;20452;-68
2022/01/14 04:50:22;;;;;;;52.53;17.73;;;;;;;;;;5033290;28;20289;-68
2022/01/14 04:52:48;;;;;;;51.70;16.83;;;;;;;;;;5033173;28;20017;-68
2022/01/14 04:55:14;;;;;;;49.70;19.15;;;;;;;;;;5032577;28;20038;-68
2022/01/14 04:57:39;;;;;;;53.05;18.30;;;;;;;;;;5032355;28;20025;-68
2022/01/14 05:00:06;;;;;;;48.97;16.88;;;;;;;;;;5032478;28;20017;-68
2022/01/14 05:02:31;;;;;;;56.63;16.90;;;;;;;;;;5033091;28;20025;-68
2022/01/14 05:04:58;;;;;;;47.15;16.80;;;;;;;;;;5031686;28;20017;-68
2022/01/14 05:07:26;;;;;;;53.33;18.88;;;;;;;;;;5032312;28;20105;-68
2022/01/14 05:12:40;;;;;;;58.05;16.20;;;;;;;;;;5032350;28;20025;-68
2022/01/14 05:15:07;;;;;;;46.00;16.88;;;;;;;;;;5032177;28;20021;-68
2022/01/14 05:17:32;;;;;;;57.08;17.60;;;;;;;;;;5032314;28;20026;-68
2022/01/14 05:19:58;;;;;;;48.75;17.27;;;;;;;;;;5032935;28;20123;-68
2022/01/14 05:22:23;;;;;;;45.97;15.93;;;;;;;;;;5032187;28;20367;-68
2022/01/14 05:24:49;;;;;;;42.28;16.25;;;;;;;;;;5032750;28;20034;-68
2022/01/14 05:27:14;;;;;;;46.50;16.60;;;;;;;;;;5031455;28;20112;-68
2022/01/14 05:29:39;;;;;;;48.90;16.52;;;;;;;;;;5031865;28;20112;-68
2022/01/14 05:32:08;;;;;;;53.05;16.63;;;;;;;;;;5032084;28;20452;-68
2022/01/14 05:34:34;;;;;;;47.45;15.90;;;;;;;;;;5030956;28;20437;-68
2022/01/14 05:37:00;;;;;;;51.60;16.75;;;;;;;;;;5031158;28;20492;-68
2022/01/14 05:39:25;;;;;;;54.20;16.02;;;;;;;;;;5031946;28;20057;-68
2022/01/14 05:41:51;;;;;;;60.92;17.17;;;;;;;;;;5031074;28;20026;-68
2022/01/14 05:44:17;;;;;;;49.13;16.42;;;;;;;;;;5031534;28;20036;-68
2022/01/14 05:46:42;;;;;;;50.47;15.20;;;;;;;;;;5030122;28;20079;-68
2022/01/14 05:49:07;;;;;;;49.47;16.75;;;;;;;;;;5030441;28;20457;-68
2022/01/14 05:51:32;;;;;;;55.00;17.13;;;;;;;;;;5030998;28;20025;-68
2022/01/14 05:53:57;;;;;;;51.22;17.10;;;;;;;;;;5031858;28;20025;-68
2022/01/14 05:56:23;;;;;;;49.58;16.63;;;;;;;;;;5030726;28;20029;-68
2022/01/14 05:58:48;;;;;;;55.17;16.15;;;;;;;;;;5029558;28;20068;-68
2022/01/14 06:01:13;;;;;;;43.78;15.55;;;;;;;;;;5031251;28;20112;-68
2022/01/14 06:03:38;;;;;;;54.13;16.98;;;;;;;;;;5078684;23;20045;-66
2022/01/14 06:06:03;;;;;;;47.92;15.85;;;;;;;;;;5029141;28;20010;-66
2022/01/14 06:08:29;;;;;;;49.50;16.92;;;;;;;;;;5031536;28;20022;-66
2022/01/14 06:10:54;;;;;;;59.70;18.63;;;;;;;;;;5030757;28;20033;-66
2022/01/14 06:13:19;;;;;;;55.85;18.95;;;;;;;;;;5029805;28;20061;-66
2022/01/14 06:15:44;;;;;;;52.25;16.70;;;;;;;;;;5022221;28;20021;-66
2022/01/14 06:18:09;;;;;;;42.83;16.58;;;;;;;;;;5006206;28;20053;-66
2022/01/14 06:20:35;;;;;;;45.55;15.13;;;;;;;;;;5007568;28;20021;-66
2022/01/14 06:23:00;;;;;;;47.15;15.93;;;;;;;;;;5001685;28;20108;-66
2022/01/14 06:25:25;;;;;;;46.95;17.60;;;;;;;;;;5009158;28;20032;-66
2022/01/14 06:27:50;;;;;;;50.85;17.17;;;;;;;;;;5008521;28;20451;-66
2022/01/14 06:30:16;;;;;;;52.45;16.65;;;;;;;;;;5008114;28;20372;-66
2022/01/14 06:32:41;;;;;;;51.05;16.95;;;;;;;;;;5008979;28;20014;-66
2022/01/14 06:35:14;;;;;;;50.72;18.65;;;;;;;;;;5008181;28;20033;-66
2022/01/14 06:37:40;;;;;;;56.35;17.77;;;;;;;;;;5007583;28;20068;-66
2022/01/14 06:40:05;;;;;;;54.80;16.80;;;;;;;;;;5006636;28;20054;-66
2022/01/14 06:42:30;;;;;;;48.92;18.00;;;;;;;;;;5005168;28;20025;-66
2022/01/14 06:44:56;;;;;;;53.03;18.15;;;;;;;;;;5007427;28;20034;-66
2022/01/14 06:47:22;;;;;;;52.85;18.42;;;;;;;;;;5007453;28;20033;-66
2022/01/14 06:49:47;;;;;;;49.58;17.75;;;;;;;;;;5007564;28;20029;-66
2022/01/14 06:52:12;;;;;;;49.92;17.98;;;;;;;;;;5008166;28;20040;-66
2022/01/14 06:54:37;;;;;;;52.42;18.15;;;;;;;;;;5006304;28;20026;-66
2022/01/14 06:57:03;;;;;;;50.30;18.08;;;;;;;;;;5007550;28;20125;-66
2022/01/14 06:59:28;;;;;;;57.35;17.50;;;;;;;;;;5006083;28;20117;-66
2022/01/14 07:01:54;;;;;;;64.03;18.15;;;;;;;;;;5007919;28;20080;-66
2022/01/14 07:04:19;;;;;;;56.17;17.15;;;;;;;;;;5006774;28;20030;-66
2022/01/14 07:06:44;;;;;;;59.22;17.75;;;;;;;;;;5008511;28;20463;-66
2022/01/14 07:09:09;;;;;;;55.97;17.67;;;;;;;;;;5007437;28;20033;-66
2022/01/14 07:11:36;;;;;;;48.08;16.75;;;;;;;;;;5006985;28;20032;-66
2022/01/14 07:14:03;;;;;;;51.83;18.60;;;;;;;;;;5012098;28;20020;-66
2022/01/14 07:16:28;;;;;;;50.50;17.95;;;;;;;;;;5014248;28;20414;-66
2022/01/14 07:18:53;;;;;;;51.88;18.30;;;;;;;;;;5002376;28;20018;-66
2022/01/14 07:21:18;;;;;;;50.95;17.25;;;;;;;;;;5010741;28;20025;-66
2022/01/14 07:23:44;;;;;;;56.38;17.27;;;;;;;;;;5012708;28;20056;-66
2022/01/14 07:26:09;;;;;;;50.78;15.50;;;;;;;;;;5010968;28;20035;-66
2022/01/14 07:28:34;;;;;;;48.13;17.63;;;;;;;;;;5013354;28;20080;-66
2022/01/14 07:30:59;;;;;;;57.45;17.90;;;;;;;;;;5010789;28;20030;-66
2022/01/14 07:33:24;;;;;;;45.10;17.42;;;;;;;;;;5028410;28;20457;-66
2022/01/14 07:35:50;;;;;;;53.08;17.50;;;;;;;;;;5012211;28;20029;-66
2022/01/14 07:38:15;;;;;;;57.70;20.92;;;;;;;;;;5011097;28;20025;-66
2022/01/14 07:40:40;;;;;;;56.72;18.10;;;;;;;;;;5014634;28;20028;-66
2022/01/14 07:43:06;;;;;;;49.88;16.67;;;;;;;;;;5010566;28;20094;-66
2022/01/14 07:45:31;;;;;;;52.88;18.75;;;;;;;;;;5010152;28;20477;-66
2022/01/14 07:47:56;;;;;;;55.22;18.50;;;;;;;;;;5014647;28;20378;-66
2022/01/14 07:50:21;;;;;;;63.85;20.13;;;;;;;;;;5014605;28;20025;-66
2022/01/14 07:52:46;;;;;;;53.15;19.02;;;;;;;;;;5010447;28;20026;-66
2022/01/14 07:55:12;;;;;;;55.45;19.42;;;;;;;;;;5010828;28;20036;-66
2022/01/14 07:57:37;;;;;;;56.88;17.60;;;;;;;;;;5021421;28;20030;-66
2022/01/14 08:00:04;;;;;;;52.63;17.92;;;;;;;;;;5012046;28;20470;-66
2022/01/14 08:02:29;;;;;;;51.40;18.00;;;;;;;;;;5016385;28;20026;-66
2022/01/14 08:04:55;;;;;;;47.22;18.13;;;;;;;;;;5011591;28;20525;-66
2022/01/14 08:07:22;;;;;;;43.15;16.42;;;;;;;;;;5009337;28;20092;-66
2022/01/14 08:09:48;;;;;;;53.50;18.25;;;;;;;;;;5010605;28;20021;-66
2022/01/14 08:12:13;;;;;;;46.15;17.83;;;;;;;;;;5010420;28;20501;-66
2022/01/14 08:14:39;;;;;;;51.17;18.70;;;;;;;;;;5019625;28;20674;-66
2022/01/14 08:17:04;;;;;;;50.25;19.73;;;;;;;;;;5010817;28;20061;-66
2022/01/14 08:19:33;;;;;;;60.33;21.27;;;;;;;;;;5013667;28;20132;-66
2022/01/14 08:22:00;;;;;;;50.28;18.17;;;;;;;;;;5013560;28;20481;-66
2022/01/14 08:24:25;;;;;;;53.97;17.80;;;;;;;;;;5031552;28;20033;-66
2022/01/14 08:26:50;;;;;;;58.47;20.40;;;;;;;;;;5030592;28;20013;-66
2022/01/14 08:29:15;;;;;;;51.42;18.35;;;;;;;;;;5018253;28;20065;-66
2022/01/14 08:31:40;;;;;;;54.55;19.38;;;;;;;;;;5016721;28;20505;-66
2022/01/14 08:34:06;;;;;;;52.25;17.85;;;;;;;;;;5033516;28;20017;-66
2022/01/14 08:36:31;;;;;;;50.22;18.35;;;;;;;;;;5018355;28;20010;-66
2022/01/14 08:38:56;;;;;;;52.15;20.73;;;;;;;;;;5013721;28;20018;-66
2022/01/14 08:41:23;;;;;;;49.75;19.77;;;;;;;;;;5012650;28;20252;-66
2022/01/14 08:43:48;;;;;;;49.25;19.67;;;;;;;;;;5022053;28;20438;-66
2022/01/14 08:46:14;;;;;;;46.45;18.63;;;;;;;;;;5021599;28;20030;-66
2022/01/14 08:48:39;;;;;;;47.13;17.45;;;;;;;;;;5022873;28;20092;-66
2022/01/14 08:51:04;;;;;;;48.70;17.23;;;;;;;;;;5018492;28;20029;-66
2022/01/14 08:53:29;;;;;;;35.33;15.50;;;;;;;;;;5017838;28;20025;-66
2022/01/14 08:55:55;;;;;;;34.58;14.32;;;;;;;;;;5013361;28;20498;-66
2022/01/14 08:58:20;;;;;;;43.28;16.30;;;;;;;;;;5013118;28;20029;-66
2022/01/14 09:00:45;;;;;;;41.67;14.98;;;;;;;;;;5017664;28;20022;-66
2022/01/14 09:03:10;;;;;;;37.47;15.18;;;;;;;;;;5012305;28;20390;-66
2022/01/14 09:05:35;;;;;;;38.25;15.60;;;;;;;;;;5022464;28;20390;-66
2022/01/14 09:08:01;;;;;;;48.08;17.75;;;;;;;;;;5013362;28;20018;-66
2022/01/14 09:10:26;;;;;;;34.75;14.95;;;;;;;;;;5009346;28;20065;-66
2022/01/14 09:12:51;;;;;;;39.22;16.20;;;;;;;;;;5012618;28;20105;-66
2022/01/14 09:15:17;;;;;;;40.67;16.83;;;;;;;;;;5016349;28;20022;-66
2022/01/14 09:17:42;;;;;;;39.67;16.55;;;;;;;;;;5018180;28;20485;-66
2022/01/14 09:20:08;;;;;;;33.90;14.50;;;;;;;;;;5012902;28;20086;-66
2022/01/14 09:22:35;;;;;;;34.10;15.68;;;;;;;;;;5013022;28;20490;-67
2022/01/14 09:25:01;;;;;;;41.80;16.40;;;;;;;;;;5012844;28;20396;-66
2022/01/14 09:27:28;;;;;;;35.55;15.23;;;;;;;;;;5012318;28;20025;-67
2022/01/14 09:29:56;;;;;;;35.85;16.02;;;;;;;;;;5012225;28;20018;-66
2022/01/14 09:32:21;;;;;;;32.63;14.77;;;;;;;;;;5012299;28;20022;-67
2022/01/14 09:34:46;;;;;;;33.63;15.13;;;;;;;;;;5012309;28;20033;-67
2022/01/14 09:37:12;;;;;;;36.40;17.33;;;;;;;;;;5010768;28;20021;-67
2022/01/14 09:39:39;;;;;;;40.03;15.98;;;;;;;;;;5011962;28;20018;-67
2022/01/14 09:42:06;;;;;;;31.20;15.82;;;;;;;;;;5012594;28;20610;-67
2022/01/14 09:44:31;;;;;;;44.47;16.27;;;;;;;;;;5011932;28;20057;-67
2022/01/14 09:46:56;;;;;;;41.97;16.95;;;;;;;;;;5011789;28;20060;-67
2022/01/14 09:49:21;;;;;;;30.23;15.00;;;;;;;;;;5014583;28;20029;-66
2022/01/14 09:51:47;;;;;;;31.90;15.60;;;;;;;;;;5018366;28;20563;-67
2022/01/14 09:54:12;;;;;;;37.40;17.00;;;;;;;;;;5015164;28;20532;-67
2022/01/14 09:56:38;;;;;;;39.65;16.58;;;;;;;;;;5017222;28;20018;-67
2022/01/14 09:59:04;;;;;;;31.92;14.43;;;;;;;;;;5012348;28;20022;-66
2022/01/14 10:01:36;;;;;;;29.45;13.50;;;;;;;;;;5032398;28;20545;-66
2022/01/14 10:04:02;;;;;;;33.08;15.18;;;;;;;;;;5015798;28;20106;-66
2022/01/14 10:06:38;;;;;;;38.30;15.98;;;;;;;;;;5021359;28;20462;-67
2022/01/14 10:09:08;;;;;;;31.55;14.60;;;;;;;;;;5014189;28;20017;-66
2022/01/14 10:11:34;;;;;;;;;;;;;;;;;;5016533;28;20013;-67
2022/01/14 10:14:06;;;;;;;33.88;15.43;;;;;;;;;;5032217;28;19905;-66
2022/01/14 10:16:31;;;;;;;30.55;15.55;;;;;;;;;;5028757;28;20095;-66
2022/01/14 10:18:56;;;;;;;38.57;15.37;;;;;;;;;;5031822;28;20429;-66
2022/01/14 10:21:29;;;;;;;34.70;14.50;;;;;;;;;;5013575;28;20280;-66
2022/01/14 10:23:55;;;;;;;38.28;14.93;;;;;;;;;;5011885;28;20406;-66
2022/01/14 10:26:21;;;;;;;33.88;14.95;;;;;;;;;;5023145;28;20013;-67
2022/01/14 10:29:00;;;;;;;36.65;16.23;;;;;;;;;;5028003;28;20022;-67
2022/01/14 10:31:32;;;;;;;37.08;15.77;;;;;;;;;;5017180;28;20538;-66
2022/01/14 10:34:09;;;;;;;36.90;15.85;;;;;;;;;;5031821;28;20033;-66
2022/01/14 10:36:35;;;;;;;43.33;15.98;;;;;;;;;;5021486;28;20018;-67
2022/01/14 10:39:16;;;;;;;37.10;17.57;;;;;;;;;;5011552;28;20437;-67
2022/01/14 10:41:41;;;;;;;33.35;16.55;;;;;;;;;;5021235;28;20272;-67
2022/01/14 10:44:27;;;;;;;33.53;15.18;;;;;;;;;;5020532;28;20117;-66
2022/01/14 10:47:12;;;;;;;37.72;16.65;;;;;;;;;;5011553;28;20097;-66
2022/01/14 10:49:37;;;;;;;38.78;16.67;;;;;;;;;;5013099;28;20025;-66
2022/01/14 10:52:14;;;;;;;30.27;14.90;;;;;;;;;;5015643;28;20037;-66
2022/01/14 10:54:47;;;;;;;34.40;15.05;;;;;;;;;;5026762;28;20056;-66
2022/01/14 10:57:20;;;;;;;33.47;16.77;;;;;;;;;;5001653;28;20088;-66
2022/01/14 10:59:46;;;;;;;37.22;17.00;;;;;;;;;;5013137;28;20029;-66
2022/01/14 11:02:31;;;;;;;44.78;17.90;;;;;;;;;;5015333;28;20037;-66
2022/01/14 11:05:06;;;;;;;51.38;20.70;;;;;;;;;;5013017;28;20022;-66
2022/01/14 11:07:32;;;;;;;57.00;20.73;;;;;;;;;;4997192;28;20026;-66
2022/01/14 11:09:58;;;;;;;63.17;22.50;;;;;;;;;;5027697;28;20037;-66
2022/01/14 11:12:24;;;;;;;59.47;23.15;;;;;;;;;;5010396;28;20033;-66
2022/01/14 11:14:49;;;;;;;59.60;22.67;;;;;;;;;;5025612;28;20009;-66
2022/01/14 11:17:15;;;;;;;59.60;24.42;;;;;;;;;;5022293;28;20096;-66
2022/01/14 11:19:41;;;;;;;65.40;26.05;;;;;;;;;;5010806;28;20490;-66
2022/01/14 11:24:50;;;;;;;67.72;24.25;;;;;;;;;;5013811;28;20028;-66
2022/01/14 11:27:17;;;;;;;74.38;26.50;;;;;;;;;;5010318;28;20459;-66
2022/01/14 11:29:44;;;;;;;90.10;28.60;;;;;;;;;;5010098;28;20147;-66
2022/01/14 11:32:10;;;;;;;91.45;31.63;;;;;;;;;;5011498;28;20025;-66
2022/01/14 11:34:42;;;;;;;88.15;33.05;;;;;;;;;;5010368;28;20068;-66
2022/01/14 11:37:16;;;;;;;86.97;30.65;;;;;;;;;;5008803;28;20022;-66
2022/01/14 11:39:53;;;;;;;103.68;33.38;;;;;;;;;;5010032;28;20014;-65
2022/01/14 11:42:18;;;;;;;101.25;31.73;;;;;;;;;;5008960;28;20033;-65
2022/01/14 11:44:44;;;;;;;97.75;34.40;;;;;;;;;;5007000;28;20125;-65
2022/01/14 11:47:25;;;;;;;108.47;32.90;;;;;;;;;;5008065;28;20492;-66
2022/01/14 11:49:51;;;;;;;105.45;33.08;;;;;;;;;;5008834;28;20018;-66
2022/01/14 11:52:32;;;;;;;113.18;34.25;;;;;;;;;;5009413;28;20033;-66
2022/01/14 11:54:57;;;;;;;;;;;;;;;;;;5010597;28;20092;-65
2022/01/14 11:57:51;;;;;;;112.32;35.13;;;;;;;;;;5012080;28;19918;-65
2022/01/14 12:00:39;;;;;;;108.43;34.28;;;;;;;;;;5011899;28;20045;-66
2022/01/14 12:03:07;;;;;;;107.45;32.72;;;;;;;;;;5016922;28;20022;-65
2022/01/14 12:05:33;;;;;;;117.50;34.67;;;;;;;;;;5036476;23;20047;-67
2022/01/14 12:08:01;;;;;;;113.95;35.58;;;;;;;;;;5015830;28;20084;-67
2022/01/14 12:10:34;;;;;;;116.47;33.30;;;;;;;;;;5016348;28;20018;-67
2022/01/14 12:13:26;;;;;;;126.50;33.63;;;;;;;;;;5016759;28;20022;-67
2022/01/14 12:15:57;;;;;;;115.40;32.13;;;;;;;;;;4994080;28;20054;-68
2022/01/14 12:18:22;;;;;;;;;;;;;;;;;;4996785;28;20498;-67
2022/01/14 12:20:47;;;;;;;110.22;33.95;;;;;;;;;;4996890;28;20413;-67
2022/01/14 12:23:17;;;;;;;125.75;36.17;;;;;;;;;;4996446;28;20030;-67
2022/01/14 12:25:43;;;;;;;123.23;35.70;;;;;;;;;;4996685;28;20056;-67
2022/01/14 12:28:18;;;;;;;129.95;34.00;;;;;;;;;;4996857;28;20092;-67
2022/01/14 12:31:01;;;;;;;119.20;32.47;;;;;;;;;;4995780;28;20089;-67
2022/01/14 12:33:40;;;;;;;120.97;33.42;;;;;;;;;;4995384;28;20030;-67
2022/01/14 12:36:15;;;;;;;127.18;34.95;;;;;;;;;;4996414;28;20021;-67
2022/01/14 12:38:42;;;;;;;124.53;34.95;;;;;;;;;;4995973;28;20037;-67
2022/01/14 12:41:17;;;;;;;137.45;37.38;;;;;;;;;;4996043;28;20372;-67
2022/01/14 12:43:49;;;;;;;129.73;35.53;;;;;;;;;;4996378;28;20022;-67
2022/01/14 12:46:34;;;;;;;133.73;36.38;;;;;;;;;;4990009;28;20062;-67
2022/01/14 12:49:01;;;;;;;140.90;33.88;;;;;;;;;;4996193;28;20524;-67
2022/01/14 12:51:27;;;;;;;124.47;35.28;;;;;;;;;;4996320;28;20164;-67
2022/01/14 12:53:54;;;;;;;123.00;34.45;;;;;;;;;;4996178;28;20074;-67
2022/01/14 12:56:20;;;;;;;137.57;38.63;;;;;;;;;;4995665;28;20430;-68
2022/01/14 12:58:59;;;;;;;128.43;34.30;;;;;;;;;;4995798;28;20065;-68
2022/01/14 13:01:29;;;;;;;132.90;36.03;;;;;;;;;;4995881;28;20022;-68
2022/01/14 13:03:55;;;;;;;133.77;31.75;;;;;;;;;;4996389;28;20026;-68
2022/01/14 13:06:20;;;;;;;130.88;35.15;;;;;;;;;;4996268;28;20061;-68
2022/01/14 13:08:56;;;;;;;142.95;34.30;;;;;;;;;;4993821;28;20069;-68
2022/01/14 13:11:21;;;;;;;136.02;34.83;;;;;;;;;;4993213;28;20023;-68
2022/01/14 13:13:56;;;;;;;128.40;34.92;;;;;;;;;;4988555;28;20030;-68
2022/01/14 13:16:21;;;;;;;122.47;33.63;;;;;;;;;;4992324;28;20018;-68
2022/01/14 13:18:47;;;;;;;114.27;32.83;;;;;;;;;;4992588;28;20030;-68
2022/01/14 13:21:12;;;;;;;113.22;34.00;;;;;;;;;;4993175;28;20762;-68
2022/01/14 13:23:37;;;;;;;99.38;30.25;;;;;;;;;;4986803;28;20090;-68
2022/01/14 13:26:03;;;;;;;111.75;30.75;;;;;;;;;;4993134;28;20018;-68
2022/01/14 13:28:28;;;;;;;109.88;30.33;;;;;;;;;;4992551;28;20036;-68
2022/01/14 13:30:53;;;;;;;98.73;29.30;;;;;;;;;;4991368;28;20435;-68
2022/01/14 13:33:20;;;;;;;100.13;29.27;;;;;;;;;;4993137;28;20283;-68
2022/01/14 13:35:46;;;;;;;93.43;28.67;;;;;;;;;;4992297;28;20026;-68
2022/01/14 13:38:18;;;;;;;102.05;29.25;;;;;;;;;;4993278;28;20030;-68
2022/01/14 13:40:47;;;;;;;86.45;27.80;;;;;;;;;;4991540;28;20023;-68
2022/01/14 13:43:17;;;;;;;87.35;27.08;;;;;;;;;;4993348;28;20049;-68
2022/01/14 13:45:46;;;;;;;91.38;24.52;;;;;;;;;;4991939;28;20054;-68
2022/01/14 13:48:18;;;;;;;88.80;26.35;;;;;;;;;;4992345;28;20038;-68
2022/01/14 13:50:45;;;;;;;75.75;25.90;;;;;;;;;;4991410;28;20089;-68
2022/01/14 13:53:11;;;;;;;82.15;27.38;;;;;;;;;;4999042;28;20156;-68
2022/01/14 13:55:47;;;;;;;90.32;25.98;;;;;;;;;;4993233;28;20023;-68
2022/01/14 13:58:16;;;;;;;78.00;23.52;;;;;;;;;;4992639;28;20064;-68
2022/01/14 14:00:43;;;;;;;95.40;26.83;;;;;;;;;;4992459;28;20025;-68
2022/01/14 14:03:12;;;;;;;73.10;24.83;;;;;;;;;;4991450;28;20031;-68
2022/01/14 14:05:40;;;;;;;88.80;28.88;;;;;;;;;;4992128;28;20037;-68
2022/01/14 14:08:22;;;;;;;109.22;30.08;;;;;;;;;;4992406;28;20020;-68
2022/01/14 14:12:03;;;;;;;98.55;29.23;;;;;;;;;;4986247;28;20058;-68
2022/01/14 14:16:49;;;;;;;83.55;25.13;;;;;;;;;;4991116;28;20541;-68
2022/01/14 14:19:14;;;;;;;90.28;28.63;;;;;;;;;;4991223;28;20026;-68
2022/01/14 14:21:43;;;;;;;96.70;32.10;;;;;;;;;;4991530;28;20030;-68
2022/01/14 14:24:09;;;;;;;82.63;28.27;;;;;;;;;;4991075;28;20482;-68
2022/01/14 14:26:35;;;;;;;100.10;29.02;;;;;;;;;;4991341;28;20277;-68
2022/01/14 14:29:02;;;;;;;98.63;28.60;;;;;;;;;;4992274;28;20093;-68
2022/01/14 14:31:32;;;;;;;85.57;27.00;;;;;;;;;;4992141;28;20049;-68
2022/01/14 14:33:57;;;;;;;84.15;25.17;;;;;;;;;;4992432;28;20027;-68
2022/01/14 14:36:26;;;;;;;84.30;27.83;;;;;;;;;;4991681;28;20116;-68
2022/01/14 14:38:51;;;;;;;112.07;36.53;;;;;;;;;;4991373;28;20024;-68
2022/01/14 14:41:16;;;;;;;98.40;33.50;;;;;;;;;;4991476;28;20112;-68
2022/01/14 14:43:42;;;;;;;92.30;32.22;;;;;;;;;;4991926;28;20109;-68
2022/01/14 14:46:10;;;;;;;112.53;35.33;;;;;;;;;;4991814;28;20615;-68
2022/01/14 14:48:35;;;;;;;98.70;31.65;;;;;;;;;;4991178;28;20494;-68
2022/01/14 14:51:00;;;;;;;101.10;32.90;;;;;;;;;;4991132;28;20030;-67
2022/01/14 14:53:26;;;;;;;90.47;30.00;;;;;;;;;;4991870;28;20034;-67